<?xml version='1.0' encoding='UTF-8'?><gpx version="1.1" creator="JPX - https://github.com/jenetics/jpx" xmlns="http://www.topografix.com/GPX/1/1"><trk><trkseg><trkpt lat="42.4799042" lon="12.5675384"><ele>570.0</ele><time>2026-03-28T15:08:51.982Z</time></trkpt><trkpt lat="42.4798421" lon="12.5675567"><ele>570.0</ele><time>2026-03-28T15:08:56.981Z</time></trkpt><trkpt lat="42.4797884" lon="12.5676217"><ele>570.0</ele><time>2026-03-28T15:09:03.983Z</time></trkpt><trkpt lat="42.479766" lon="12.5677125"><ele>570.0</ele><time>2026-03-28T15:09:11.983Z</time></trkpt><trkpt lat="42.4797729" lon="12.567806"><ele>570.0</ele><time>2026-03-28T15:09:19.986Z</time></trkpt><trkpt lat="42.4797637" lon="12.5678941"><ele>570.0</ele><time>2026-03-28T15:09:26.987Z</time></trkpt><trkpt lat="42.4797694" lon="12.5679805"><ele>570.0</ele><time>2026-03-28T15:09:33.983Z</time></trkpt><trkpt lat="42.4797798" lon="12.5680697"><ele>569.7142857142857</ele><time>2026-03-28T15:09:39.981Z</time></trkpt><trkpt lat="42.4797803" lon="12.5681609"><ele>569.4285714285714</ele><time>2026-03-28T15:09:47.982Z</time></trkpt><trkpt lat="42.4797958" lon="12.5682469"><ele>569.1428571428571</ele><time>2026-03-28T15:09:55.982Z</time></trkpt><trkpt lat="42.4798182" lon="12.5683364"><ele>568.8571428571429</ele><time>2026-03-28T15:10:04.984Z</time></trkpt><trkpt lat="42.4798459" lon="12.5684255"><ele>568.5714285714286</ele><time>2026-03-28T15:10:11.984Z</time></trkpt><trkpt lat="42.4798731" lon="12.5685136"><ele>568.2857142857142</ele><time>2026-03-28T15:10:18.984Z</time></trkpt><trkpt lat="42.4799013" lon="12.5686054"><ele>568.0</ele><time>2026-03-28T15:10:24.984Z</time></trkpt><trkpt lat="42.4799222" lon="12.5686992"><ele>567.4285714285714</ele><time>2026-03-28T15:10:29.982Z</time></trkpt><trkpt lat="42.4799282" lon="12.5687956"><ele>566.8571428571428</ele><time>2026-03-28T15:10:35.984Z</time></trkpt><trkpt lat="42.4799326" lon="12.5688869"><ele>566.2857142857142</ele><time>2026-03-28T15:10:41.985Z</time></trkpt><trkpt lat="42.4799434" lon="12.5689711"><ele>565.7142857142857</ele><time>2026-03-28T15:10:47.983Z</time></trkpt><trkpt lat="42.4799393" lon="12.5690565"><ele>565.1428571428571</ele><time>2026-03-28T15:10:53.985Z</time></trkpt><trkpt lat="42.4799505" lon="12.5691513"><ele>564.5714285714286</ele><time>2026-03-28T15:10:59.984Z</time></trkpt><trkpt lat="42.4799701" lon="12.5692403"><ele>564.0</ele><time>2026-03-28T15:11:06.986Z</time></trkpt><trkpt lat="42.4799936" lon="12.569337"><ele>564.0</ele><time>2026-03-28T15:11:12.983Z</time></trkpt><trkpt lat="42.4800335" lon="12.5694109"><ele>564.0</ele><time>2026-03-28T15:11:18.985Z</time></trkpt><trkpt lat="42.48007" lon="12.5694913"><ele>564.0</ele><time>2026-03-28T15:11:26.984Z</time></trkpt><trkpt lat="42.4801155" lon="12.5695638"><ele>564.0</ele><time>2026-03-28T15:11:33.984Z</time></trkpt><trkpt lat="42.480175" lon="12.5696194"><ele>564.0</ele><time>2026-03-28T15:11:39.985Z</time></trkpt><trkpt lat="42.4802274" lon="12.5696823"><ele>564.0</ele><time>2026-03-28T15:11:45.982Z</time></trkpt><trkpt lat="42.4802731" lon="12.5697411"><ele>564.0</ele><time>2026-03-28T15:11:51.982Z</time></trkpt><trkpt lat="42.480301" lon="12.5698223"><ele>562.0</ele><time>2026-03-28T15:11:58.984Z</time></trkpt><trkpt lat="42.4803868" lon="12.5698269"><ele>560.0</ele><time>2026-03-28T15:12:24.984Z</time></trkpt><trkpt lat="42.4804591" lon="12.5698254"><ele>558.0</ele><time>2026-03-28T15:12:31.984Z</time></trkpt><trkpt lat="42.4805294" lon="12.569799"><ele>556.0</ele><time>2026-03-28T15:12:39.982Z</time></trkpt><trkpt lat="42.4805996" lon="12.5697684"><ele>554.0</ele><time>2026-03-28T15:12:46.985Z</time></trkpt><trkpt lat="42.4806536" lon="12.5697135"><ele>552.0</ele><time>2026-03-28T15:12:52.985Z</time></trkpt><trkpt lat="42.4807117" lon="12.5696571"><ele>550.0</ele><time>2026-03-28T15:13:00.98Z</time></trkpt><trkpt lat="42.4807682" lon="12.569593"><ele>549.5714285714286</ele><time>2026-03-28T15:13:10.981Z</time></trkpt><trkpt lat="42.4808238" lon="12.569537"><ele>549.1428571428571</ele><time>2026-03-28T15:13:21.981Z</time></trkpt><trkpt lat="42.480884" lon="12.5695082"><ele>548.7142857142857</ele><time>2026-03-28T15:13:27.981Z</time></trkpt><trkpt lat="42.4809446" lon="12.5694573"><ele>548.2857142857142</ele><time>2026-03-28T15:13:42.985Z</time></trkpt><trkpt lat="42.4810095" lon="12.5694114"><ele>547.8571428571428</ele><time>2026-03-28T15:13:47.983Z</time></trkpt><trkpt lat="42.4810839" lon="12.5693776"><ele>547.4285714285714</ele><time>2026-03-28T15:13:51.985Z</time></trkpt><trkpt lat="42.4811439" lon="12.5693168"><ele>547.0</ele><time>2026-03-28T15:13:56.983Z</time></trkpt><trkpt lat="42.4811954" lon="12.5692529"><ele>548.0</ele><time>2026-03-28T15:14:02.984Z</time></trkpt><trkpt lat="42.4812617" lon="12.5692173"><ele>549.0</ele><time>2026-03-28T15:14:11.983Z</time></trkpt><trkpt lat="42.4813223" lon="12.5691729"><ele>550.0</ele><time>2026-03-28T15:14:19.983Z</time></trkpt><trkpt lat="42.4813817" lon="12.56912"><ele>551.0</ele><time>2026-03-28T15:14:26.986Z</time></trkpt><trkpt lat="42.4814445" lon="12.5690706"><ele>552.0</ele><time>2026-03-28T15:14:32.984Z</time></trkpt><trkpt lat="42.4815054" lon="12.5690151"><ele>553.0</ele><time>2026-03-28T15:14:38.986Z</time></trkpt><trkpt lat="42.4815633" lon="12.5689669"><ele>554.0</ele><time>2026-03-28T15:14:44.982Z</time></trkpt><trkpt lat="42.4816246" lon="12.5689284"><ele>554.5714285714286</ele><time>2026-03-28T15:14:50.983Z</time></trkpt><trkpt lat="42.481685" lon="12.5688843"><ele>555.1428571428571</ele><time>2026-03-28T15:14:57.982Z</time></trkpt><trkpt lat="42.4817393" lon="12.568832"><ele>555.7142857142857</ele><time>2026-03-28T15:15:03.983Z</time></trkpt><trkpt lat="42.481773" lon="12.5687587"><ele>556.2857142857142</ele><time>2026-03-28T15:15:11.985Z</time></trkpt><trkpt lat="42.4818311" lon="12.5687072"><ele>556.8571428571429</ele><time>2026-03-28T15:15:18.984Z</time></trkpt><trkpt lat="42.4818988" lon="12.5686841"><ele>557.4285714285713</ele><time>2026-03-28T15:15:23.986Z</time></trkpt><trkpt lat="42.4819688" lon="12.568651"><ele>558.0</ele><time>2026-03-28T15:15:28.985Z</time></trkpt><trkpt lat="42.48204" lon="12.568617"><ele>557.4285714285713</ele><time>2026-03-28T15:15:36.985Z</time></trkpt><trkpt lat="42.4820834" lon="12.568547"><ele>556.8571428571429</ele><time>2026-03-28T15:15:45.985Z</time></trkpt><trkpt lat="42.4821341" lon="12.5684869"><ele>556.2857142857142</ele><time>2026-03-28T15:15:51.984Z</time></trkpt><trkpt lat="42.4821875" lon="12.5684399"><ele>555.7142857142857</ele><time>2026-03-28T15:15:57.983Z</time></trkpt><trkpt lat="42.4822427" lon="12.5683928"><ele>555.1428571428571</ele><time>2026-03-28T15:16:04.982Z</time></trkpt><trkpt lat="42.4823071" lon="12.5683792"><ele>554.5714285714286</ele><time>2026-03-28T15:16:12.984Z</time></trkpt><trkpt lat="42.4823642" lon="12.5683407"><ele>554.0</ele><time>2026-03-28T15:16:19.985Z</time></trkpt><trkpt lat="42.4824286" lon="12.5683074"><ele>554.0</ele><time>2026-03-28T15:16:25.983Z</time></trkpt><trkpt lat="42.4824905" lon="12.5682643"><ele>554.0</ele><time>2026-03-28T15:16:32.983Z</time></trkpt><trkpt lat="42.4825501" lon="12.5682342"><ele>554.0</ele><time>2026-03-28T15:16:38.984Z</time></trkpt><trkpt lat="42.4826167" lon="12.5682263"><ele>554.0</ele><time>2026-03-28T15:16:50.987Z</time></trkpt><trkpt lat="42.4826718" lon="12.5681827"><ele>554.0</ele><time>2026-03-28T15:16:57.986Z</time></trkpt><trkpt lat="42.4827237" lon="12.5681327"><ele>554.0</ele><time>2026-03-28T15:17:04.985Z</time></trkpt><trkpt lat="42.482778" lon="12.5680748"><ele>554.0</ele><time>2026-03-28T15:17:11.983Z</time></trkpt><trkpt lat="42.4828372" lon="12.5680256"><ele>554.0</ele><time>2026-03-28T15:17:18.985Z</time></trkpt><trkpt lat="42.4828976" lon="12.5679825"><ele>554.0</ele><time>2026-03-28T15:17:24.986Z</time></trkpt><trkpt lat="42.4829571" lon="12.5679356"><ele>554.0</ele><time>2026-03-28T15:17:30.983Z</time></trkpt><trkpt lat="42.4830176" lon="12.5679046"><ele>554.0</ele><time>2026-03-28T15:17:37.984Z</time></trkpt><trkpt lat="42.4830657" lon="12.5678475"><ele>554.0</ele><time>2026-03-28T15:17:56.983Z</time></trkpt><trkpt lat="42.4831362" lon="12.5678254"><ele>554.0</ele><time>2026-03-28T15:18:02.985Z</time></trkpt><trkpt lat="42.4832003" lon="12.5677933"><ele>554.0</ele><time>2026-03-28T15:18:07.984Z</time></trkpt><trkpt lat="42.4832586" lon="12.5677385"><ele>553.2857142857142</ele><time>2026-03-28T15:18:16.984Z</time></trkpt><trkpt lat="42.4833158" lon="12.5676953"><ele>552.5714285714286</ele><time>2026-03-28T15:18:21.986Z</time></trkpt><trkpt lat="42.4833673" lon="12.5676439"><ele>551.8571428571429</ele><time>2026-03-28T15:18:27.984Z</time></trkpt><trkpt lat="42.4834309" lon="12.5676244"><ele>551.1428571428571</ele><time>2026-03-28T15:18:34.984Z</time></trkpt><trkpt lat="42.4834939" lon="12.5675833"><ele>550.4285714285714</ele><time>2026-03-28T15:18:42.984Z</time></trkpt><trkpt lat="42.4835486" lon="12.5675331"><ele>549.7142857142857</ele><time>2026-03-28T15:18:48.983Z</time></trkpt><trkpt lat="42.4836002" lon="12.567471"><ele>549.0</ele><time>2026-03-28T15:18:54.983Z</time></trkpt><trkpt lat="42.4836571" lon="12.5674307"><ele>549.0</ele><time>2026-03-28T15:19:00.984Z</time></trkpt><trkpt lat="42.4837282" lon="12.5674009"><ele>549.0</ele><time>2026-03-28T15:19:07.983Z</time></trkpt><trkpt lat="42.4838054" lon="12.5673775"><ele>549.0</ele><time>2026-03-28T15:19:15.981Z</time></trkpt><trkpt lat="42.4838707" lon="12.5673465"><ele>549.0</ele><time>2026-03-28T15:19:23.982Z</time></trkpt><trkpt lat="42.483929" lon="12.5673004"><ele>549.0</ele><time>2026-03-28T15:19:32.983Z</time></trkpt><trkpt lat="42.4839911" lon="12.5672614"><ele>549.0</ele><time>2026-03-28T15:19:41.982Z</time></trkpt><trkpt lat="42.4840546" lon="12.56725"><ele>549.0</ele><time>2026-03-28T15:19:48.982Z</time></trkpt><trkpt lat="42.484112" lon="12.5672145"><ele>566.0</ele><time>2026-03-28T15:19:55.981Z</time></trkpt><trkpt lat="42.4841702" lon="12.567172"><ele>566.0</ele><time>2026-03-28T15:20:01.982Z</time></trkpt><trkpt lat="42.4842763" lon="12.5671454"><ele>566.0</ele><time>2026-03-28T15:20:13.982Z</time></trkpt><trkpt lat="42.4843652" lon="12.5671134"><ele>566.0</ele><time>2026-03-28T15:20:24.983Z</time></trkpt></trkseg><trkseg><trkpt lat="42.4854843" lon="12.5670758"><ele>550.0</ele><time>2026-03-28T15:32:06.98Z</time></trkpt><trkpt lat="42.4855181" lon="12.567151"><ele>550.0</ele><time>2026-03-28T15:32:13.98Z</time></trkpt><trkpt lat="42.4855312" lon="12.5672404"><ele>550.0</ele><time>2026-03-28T15:32:20.98Z</time></trkpt><trkpt lat="42.4855338" lon="12.5673286"><ele>550.0</ele><time>2026-03-28T15:32:26.981Z</time></trkpt><trkpt lat="42.4855237" lon="12.5674156"><ele>550.0</ele><time>2026-03-28T15:32:37.983Z</time></trkpt><trkpt lat="42.4855183" lon="12.5675118"><ele>550.0</ele><time>2026-03-28T15:32:44.98Z</time></trkpt><trkpt lat="42.485514" lon="12.5676025"><ele>550.0</ele><time>2026-03-28T15:32:50.982Z</time></trkpt><trkpt lat="42.4854716" lon="12.5676839"><ele>550.0</ele><time>2026-03-28T15:32:55.981Z</time></trkpt><trkpt lat="42.485429" lon="12.5677529"><ele>550.0</ele><time>2026-03-28T15:33:03.981Z</time></trkpt><trkpt lat="42.4853823" lon="12.5678281"><ele>550.0</ele><time>2026-03-28T15:33:10.981Z</time></trkpt><trkpt lat="42.4853355" lon="12.5678921"><ele>550.0</ele><time>2026-03-28T15:33:16.98Z</time></trkpt><trkpt lat="42.4853036" lon="12.5679827"><ele>550.0</ele><time>2026-03-28T15:33:22.981Z</time></trkpt><trkpt lat="42.4852654" lon="12.5680626"><ele>550.0</ele><time>2026-03-28T15:33:28.981Z</time></trkpt><trkpt lat="42.4852173" lon="12.5681246"><ele>550.0</ele><time>2026-03-28T15:33:34.981Z</time></trkpt><trkpt lat="42.4851667" lon="12.5681946"><ele>551.8571428571429</ele><time>2026-03-28T15:33:42.983Z</time></trkpt><trkpt lat="42.4851122" lon="12.5682656"><ele>553.7142857142857</ele><time>2026-03-28T15:33:48.985Z</time></trkpt><trkpt lat="42.4850667" lon="12.568329"><ele>555.5714285714286</ele><time>2026-03-28T15:33:54.985Z</time></trkpt><trkpt lat="42.4850153" lon="12.5683812"><ele>557.4285714285714</ele><time>2026-03-28T15:34:00.981Z</time></trkpt><trkpt lat="42.4849534" lon="12.5684338"><ele>559.2857142857143</ele><time>2026-03-28T15:34:06.982Z</time></trkpt><trkpt lat="42.4849017" lon="12.5684946"><ele>561.1428571428571</ele><time>2026-03-28T15:34:12.983Z</time></trkpt><trkpt lat="42.4848399" lon="12.5685348"><ele>563.0</ele><time>2026-03-28T15:34:18.985Z</time></trkpt><trkpt lat="42.4847817" lon="12.5685694"><ele>563.0</ele><time>2026-03-28T15:34:24.983Z</time></trkpt><trkpt lat="42.4847187" lon="12.5686014"><ele>563.0</ele><time>2026-03-28T15:34:30.985Z</time></trkpt><trkpt lat="42.4846629" lon="12.5686412"><ele>563.0</ele><time>2026-03-28T15:34:36.983Z</time></trkpt><trkpt lat="42.4846051" lon="12.5686938"><ele>563.0</ele><time>2026-03-28T15:34:42.985Z</time></trkpt><trkpt lat="42.4845483" lon="12.5687452"><ele>563.0</ele><time>2026-03-28T15:34:48.985Z</time></trkpt><trkpt lat="42.4844863" lon="12.5687813"><ele>563.0</ele><time>2026-03-28T15:34:55.983Z</time></trkpt><trkpt lat="42.4844179" lon="12.5688251"><ele>563.0</ele><time>2026-03-28T15:35:02.983Z</time></trkpt><trkpt lat="42.4843582" lon="12.568882"><ele>562.5714285714286</ele><time>2026-03-28T15:35:08.984Z</time></trkpt><trkpt lat="42.4843065" lon="12.5689406"><ele>562.1428571428571</ele><time>2026-03-28T15:35:14.986Z</time></trkpt><trkpt lat="42.484243" lon="12.568979"><ele>561.7142857142858</ele><time>2026-03-28T15:35:20.986Z</time></trkpt><trkpt lat="42.4841891" lon="12.5690297"><ele>561.2857142857142</ele><time>2026-03-28T15:35:27.985Z</time></trkpt><trkpt lat="42.4841438" lon="12.5691079"><ele>560.8571428571429</ele><time>2026-03-28T15:35:34.983Z</time></trkpt><trkpt lat="42.4840902" lon="12.5691643"><ele>560.4285714285714</ele><time>2026-03-28T15:35:39.984Z</time></trkpt><trkpt lat="42.4840392" lon="12.5692175"><ele>560.0</ele><time>2026-03-28T15:35:44.986Z</time></trkpt><trkpt lat="42.4839892" lon="12.5692728"><ele>560.0</ele><time>2026-03-28T15:35:50.985Z</time></trkpt><trkpt lat="42.4839333" lon="12.5693314"><ele>560.0</ele><time>2026-03-28T15:35:57.982Z</time></trkpt><trkpt lat="42.4838736" lon="12.5693727"><ele>560.0</ele><time>2026-03-28T15:36:03.985Z</time></trkpt><trkpt lat="42.4838178" lon="12.5694149"><ele>560.0</ele><time>2026-03-28T15:36:09.985Z</time></trkpt><trkpt lat="42.4837638" lon="12.5694638"><ele>560.0</ele><time>2026-03-28T15:36:15.986Z</time></trkpt><trkpt lat="42.4837021" lon="12.5695115"><ele>560.0</ele><time>2026-03-28T15:36:22.985Z</time></trkpt><trkpt lat="42.4836448" lon="12.5695589"><ele>560.0</ele><time>2026-03-28T15:36:29.985Z</time></trkpt><trkpt lat="42.4835758" lon="12.5695913"><ele>558.0</ele><time>2026-03-28T15:36:36.986Z</time></trkpt><trkpt lat="42.483514" lon="12.5696384"><ele>556.0</ele><time>2026-03-28T15:36:43.985Z</time></trkpt><trkpt lat="42.4834503" lon="12.5696745"><ele>554.0</ele><time>2026-03-28T15:36:50.984Z</time></trkpt><trkpt lat="42.4833852" lon="12.5697074"><ele>552.0</ele><time>2026-03-28T15:36:57.985Z</time></trkpt><trkpt lat="42.483326" lon="12.5697619"><ele>550.0</ele><time>2026-03-28T15:37:04.984Z</time></trkpt><trkpt lat="42.4832682" lon="12.5698179"><ele>548.0</ele><time>2026-03-28T15:37:11.985Z</time></trkpt><trkpt lat="42.4832114" lon="12.5698578"><ele>546.0</ele><time>2026-03-28T15:37:19.982Z</time></trkpt><trkpt lat="42.4831434" lon="12.5698829"><ele>546.0</ele><time>2026-03-28T15:37:28.984Z</time></trkpt><trkpt lat="42.4830755" lon="12.5698988"><ele>546.0</ele><time>2026-03-28T15:37:35.983Z</time></trkpt><trkpt lat="42.4830251" lon="12.5699525"><ele>546.0</ele><time>2026-03-28T15:37:41.985Z</time></trkpt><trkpt lat="42.4829588" lon="12.569997"><ele>546.0</ele><time>2026-03-28T15:37:47.982Z</time></trkpt><trkpt lat="42.4828858" lon="12.5700216"><ele>546.0</ele><time>2026-03-28T15:37:53.983Z</time></trkpt><trkpt lat="42.482816" lon="12.5700499"><ele>546.0</ele><time>2026-03-28T15:38:00.983Z</time></trkpt><trkpt lat="42.4827536" lon="12.5700916"><ele>546.0</ele><time>2026-03-28T15:38:06.985Z</time></trkpt><trkpt lat="42.4826878" lon="12.5701294"><ele>548.5714285714286</ele><time>2026-03-28T15:38:13.983Z</time></trkpt><trkpt lat="42.4826261" lon="12.5701548"><ele>551.1428571428571</ele><time>2026-03-28T15:38:20.983Z</time></trkpt><trkpt lat="42.482566" lon="12.5701882"><ele>553.7142857142858</ele><time>2026-03-28T15:38:26.983Z</time></trkpt><trkpt lat="42.4825066" lon="12.5702212"><ele>556.2857142857142</ele><time>2026-03-28T15:38:31.984Z</time></trkpt><trkpt lat="42.4824417" lon="12.5702299"><ele>558.8571428571429</ele><time>2026-03-28T15:38:38.984Z</time></trkpt><trkpt lat="42.4823705" lon="12.5702309"><ele>561.4285714285714</ele><time>2026-03-28T15:38:45.982Z</time></trkpt><trkpt lat="42.4823019" lon="12.5702392"><ele>564.0</ele><time>2026-03-28T15:38:52.983Z</time></trkpt><trkpt lat="42.4822347" lon="12.5702521"><ele>564.0</ele><time>2026-03-28T15:38:58.985Z</time></trkpt><trkpt lat="42.4821666" lon="12.5702807"><ele>564.0</ele><time>2026-03-28T15:39:04.984Z</time></trkpt><trkpt lat="42.4820944" lon="12.5702873"><ele>564.0</ele><time>2026-03-28T15:39:10.983Z</time></trkpt><trkpt lat="42.4820286" lon="12.5702673"><ele>564.0</ele><time>2026-03-28T15:39:17.983Z</time></trkpt><trkpt lat="42.4819602" lon="12.5702333"><ele>564.0</ele><time>2026-03-28T15:39:24.985Z</time></trkpt><trkpt lat="42.481898" lon="12.5702196"><ele>564.0</ele><time>2026-03-28T15:39:29.985Z</time></trkpt><trkpt lat="42.4818301" lon="12.5702291"><ele>564.0</ele><time>2026-03-28T15:39:35.985Z</time></trkpt><trkpt lat="42.4817568" lon="12.5702611"><ele>563.5714285714286</ele><time>2026-03-28T15:40:27.983Z</time></trkpt><trkpt lat="42.4816859" lon="12.5702409"><ele>563.1428571428571</ele><time>2026-03-28T15:40:31.98Z</time></trkpt><trkpt lat="42.4816176" lon="12.5702349"><ele>562.7142857142857</ele><time>2026-03-28T15:40:40.982Z</time></trkpt><trkpt lat="42.4815534" lon="12.5701881"><ele>562.2857142857142</ele><time>2026-03-28T15:41:00.982Z</time></trkpt><trkpt lat="42.4814945" lon="12.5701415"><ele>561.8571428571428</ele><time>2026-03-28T15:41:05.981Z</time></trkpt><trkpt lat="42.4814264" lon="12.5701374"><ele>561.4285714285714</ele><time>2026-03-28T15:41:12.98Z</time></trkpt><trkpt lat="42.481361" lon="12.5701083"><ele>561.0</ele><time>2026-03-28T15:41:20.981Z</time></trkpt><trkpt lat="42.4812928" lon="12.5700714"><ele>559.0</ele><time>2026-03-28T15:41:27.981Z</time></trkpt><trkpt lat="42.4812174" lon="12.570043"><ele>557.0</ele><time>2026-03-28T15:41:33.983Z</time></trkpt><trkpt lat="42.4811532" lon="12.5699962"><ele>555.0</ele><time>2026-03-28T15:41:38.982Z</time></trkpt><trkpt lat="42.4810939" lon="12.5699633"><ele>553.0</ele><time>2026-03-28T15:41:43.981Z</time></trkpt><trkpt lat="42.4810322" lon="12.5699426"><ele>551.0</ele><time>2026-03-28T15:41:47.98Z</time></trkpt><trkpt lat="42.48097" lon="12.5699095"><ele>549.0</ele><time>2026-03-28T15:41:52.985Z</time></trkpt><trkpt lat="42.4809041" lon="12.569887"><ele>547.0</ele><time>2026-03-28T15:41:57.983Z</time></trkpt><trkpt lat="42.4808423" lon="12.5698552"><ele>547.0</ele><time>2026-03-28T15:42:03.983Z</time></trkpt><trkpt lat="42.4807743" lon="12.5698437"><ele>547.0</ele><time>2026-03-28T15:42:10.982Z</time></trkpt><trkpt lat="42.4807076" lon="12.5698339"><ele>547.0</ele><time>2026-03-28T15:42:16.983Z</time></trkpt><trkpt lat="42.4806475" lon="12.5697927"><ele>547.0</ele><time>2026-03-28T15:42:23.983Z</time></trkpt><trkpt lat="42.4806604" lon="12.5696984"><ele>547.0</ele><time>2026-03-28T15:42:31.984Z</time></trkpt><trkpt lat="42.4806031" lon="12.5697631"><ele>547.0</ele><time>2026-03-28T15:42:57.982Z</time></trkpt><trkpt lat="42.4805421" lon="12.5697981"><ele>547.0</ele><time>2026-03-28T15:43:02.983Z</time></trkpt><trkpt lat="42.4804739" lon="12.5697989"><ele>547.4285714285714</ele><time>2026-03-28T15:43:08.985Z</time></trkpt><trkpt lat="42.4804067" lon="12.5697878"><ele>547.8571428571428</ele><time>2026-03-28T15:43:14.983Z</time></trkpt><trkpt lat="42.4803414" lon="12.5697689"><ele>548.2857142857142</ele><time>2026-03-28T15:43:20.984Z</time></trkpt><trkpt lat="42.480272" lon="12.5697364"><ele>548.7142857142857</ele><time>2026-03-28T15:43:26.986Z</time></trkpt><trkpt lat="42.4802201" lon="12.5696846"><ele>549.1428571428571</ele><time>2026-03-28T15:43:31.984Z</time></trkpt><trkpt lat="42.4801639" lon="12.5696203"><ele>549.5714285714286</ele><time>2026-03-28T15:43:37.985Z</time></trkpt><trkpt lat="42.4801152" lon="12.5695594"><ele>550.0</ele><time>2026-03-28T15:43:43.985Z</time></trkpt><trkpt lat="42.4800662" lon="12.5695025"><ele>552.0</ele><time>2026-03-28T15:43:49.985Z</time></trkpt><trkpt lat="42.4800236" lon="12.5694235"><ele>554.0</ele><time>2026-03-28T15:43:55.986Z</time></trkpt><trkpt lat="42.4799821" lon="12.5693486"><ele>556.0</ele><time>2026-03-28T15:44:01.986Z</time></trkpt><trkpt lat="42.4799475" lon="12.5692621"><ele>558.0</ele><time>2026-03-28T15:44:07.985Z</time></trkpt><trkpt lat="42.4799227" lon="12.5691804"><ele>560.0</ele><time>2026-03-28T15:44:13.985Z</time></trkpt><trkpt lat="42.4799176" lon="12.5690929"><ele>562.0</ele><time>2026-03-28T15:44:19.983Z</time></trkpt><trkpt lat="42.4799161" lon="12.5689987"><ele>564.0</ele><time>2026-03-28T15:44:26.984Z</time></trkpt><trkpt lat="42.4799211" lon="12.5689012"><ele>564.0</ele><time>2026-03-28T15:44:32.986Z</time></trkpt><trkpt lat="42.4799177" lon="12.5688048"><ele>564.0</ele><time>2026-03-28T15:44:40.985Z</time></trkpt><trkpt lat="42.4799055" lon="12.5687164"><ele>564.0</ele><time>2026-03-28T15:44:46.983Z</time></trkpt><trkpt lat="42.479881" lon="12.5686285"><ele>564.0</ele><time>2026-03-28T15:44:52.983Z</time></trkpt><trkpt lat="42.4798529" lon="12.5685495"><ele>564.0</ele><time>2026-03-28T15:44:59.985Z</time></trkpt><trkpt lat="42.4798292" lon="12.5684668"><ele>564.0</ele><time>2026-03-28T15:45:08.985Z</time></trkpt><trkpt lat="42.4798124" lon="12.568371"><ele>564.0</ele><time>2026-03-28T15:45:17.985Z</time></trkpt><trkpt lat="42.4797796" lon="12.5682757"><ele>564.5714285714286</ele><time>2026-03-28T15:45:24.985Z</time></trkpt><trkpt lat="42.4797745" lon="12.5681775"><ele>565.1428571428571</ele><time>2026-03-28T15:45:28.983Z</time></trkpt><trkpt lat="42.4797684" lon="12.5680917"><ele>565.7142857142857</ele><time>2026-03-28T15:45:32.985Z</time></trkpt><trkpt lat="42.4797635" lon="12.5679912"><ele>566.2857142857142</ele><time>2026-03-28T15:45:38.984Z</time></trkpt><trkpt lat="42.4797528" lon="12.5678936"><ele>566.8571428571428</ele><time>2026-03-28T15:45:44.985Z</time></trkpt><trkpt lat="42.4797552" lon="12.5678008"><ele>567.4285714285714</ele><time>2026-03-28T15:45:51.985Z</time></trkpt><trkpt lat="42.4797541" lon="12.5677094"><ele>568.0</ele><time>2026-03-28T15:45:58.983Z</time></trkpt><trkpt lat="42.4797356" lon="12.5676247"><ele>567.8571428571429</ele><time>2026-03-28T15:46:04.982Z</time></trkpt><trkpt lat="42.4796736" lon="12.5675933"><ele>567.7142857142857</ele><time>2026-03-28T15:46:10.984Z</time></trkpt><trkpt lat="42.4796118" lon="12.5676193"><ele>567.5714285714286</ele><time>2026-03-28T15:46:16.983Z</time></trkpt><trkpt lat="42.4795536" lon="12.5676554"><ele>567.4285714285714</ele><time>2026-03-28T15:46:22.983Z</time></trkpt><trkpt lat="42.4795007" lon="12.5677032"><ele>567.2857142857142</ele><time>2026-03-28T15:46:28.984Z</time></trkpt><trkpt lat="42.4794444" lon="12.5677538"><ele>567.1428571428571</ele><time>2026-03-28T15:46:36.985Z</time></trkpt><trkpt lat="42.4793953" lon="12.5678183"><ele>567.0</ele><time>2026-03-28T15:46:44.985Z</time></trkpt><trkpt lat="42.4793631" lon="12.5678962"><ele>566.7142857142857</ele><time>2026-03-28T15:46:51.984Z</time></trkpt><trkpt lat="42.4793482" lon="12.5679864"><ele>566.4285714285714</ele><time>2026-03-28T15:46:58.985Z</time></trkpt><trkpt lat="42.479346" lon="12.5680782"><ele>566.1428571428571</ele><time>2026-03-28T15:47:04.983Z</time></trkpt><trkpt lat="42.4793515" lon="12.5681741"><ele>565.8571428571429</ele><time>2026-03-28T15:47:12.985Z</time></trkpt><trkpt lat="42.4793366" lon="12.5682636"><ele>565.5714285714286</ele><time>2026-03-28T15:47:19.983Z</time></trkpt><trkpt lat="42.4792747" lon="12.5683085"><ele>565.2857142857142</ele><time>2026-03-28T15:47:27.985Z</time></trkpt><trkpt lat="42.4792061" lon="12.5683119"><ele>565.0</ele><time>2026-03-28T15:47:34.984Z</time></trkpt><trkpt lat="42.4791446" lon="12.568341"><ele>565.0</ele><time>2026-03-28T15:47:44.983Z</time></trkpt></trkseg><trkseg><trkpt lat="42.4772813" lon="12.5648185"><ele>602.0</ele><time>2026-03-28T16:03:34.981Z</time></trkpt><trkpt lat="42.4772297" lon="12.5647478"><ele>602.0</ele><time>2026-03-28T16:03:41.983Z</time></trkpt><trkpt lat="42.4771727" lon="12.5646807"><ele>602.0</ele><time>2026-03-28T16:03:47.982Z</time></trkpt><trkpt lat="42.4771348" lon="12.5645967"><ele>602.0</ele><time>2026-03-28T16:03:53.983Z</time></trkpt><trkpt lat="42.4770986" lon="12.5645247"><ele>602.0</ele><time>2026-03-28T16:04:00.983Z</time></trkpt><trkpt lat="42.4770599" lon="12.5644496"><ele>602.0</ele><time>2026-03-28T16:04:07.982Z</time></trkpt><trkpt lat="42.4770347" lon="12.5643652"><ele>602.0</ele><time>2026-03-28T16:04:14.982Z</time></trkpt><trkpt lat="42.4769976" lon="12.5642781"><ele>601.5714285714286</ele><time>2026-03-28T16:04:21.98Z</time></trkpt><trkpt lat="42.4769786" lon="12.5641938"><ele>601.1428571428571</ele><time>2026-03-28T16:04:27.981Z</time></trkpt><trkpt lat="42.4769625" lon="12.5641029"><ele>600.7142857142858</ele><time>2026-03-28T16:04:33.981Z</time></trkpt><trkpt lat="42.4769409" lon="12.5640174"><ele>600.2857142857142</ele><time>2026-03-28T16:04:38.983Z</time></trkpt><trkpt lat="42.4768971" lon="12.5639511"><ele>599.8571428571429</ele><time>2026-03-28T16:04:43.983Z</time></trkpt><trkpt lat="42.4768671" lon="12.5638603"><ele>599.4285714285714</ele><time>2026-03-28T16:04:49.98Z</time></trkpt><trkpt lat="42.4768413" lon="12.5637766"><ele>599.0</ele><time>2026-03-28T16:04:56.98Z</time></trkpt><trkpt lat="42.4768068" lon="12.5636976"><ele>599.0</ele><time>2026-03-28T16:05:03.981Z</time></trkpt><trkpt lat="42.4767538" lon="12.5636329"><ele>599.0</ele><time>2026-03-28T16:05:09.981Z</time></trkpt><trkpt lat="42.4767056" lon="12.5635613"><ele>599.0</ele><time>2026-03-28T16:05:15.981Z</time></trkpt><trkpt lat="42.4766544" lon="12.563506"><ele>599.0</ele><time>2026-03-28T16:05:21.981Z</time></trkpt><trkpt lat="42.4765855" lon="12.5634991"><ele>599.0</ele><time>2026-03-28T16:05:33.982Z</time></trkpt><trkpt lat="42.4765301" lon="12.5634551"><ele>599.0</ele><time>2026-03-28T16:05:40.982Z</time></trkpt><trkpt lat="42.4764687" lon="12.5634124"><ele>599.0</ele><time>2026-03-28T16:05:57.982Z</time></trkpt><trkpt lat="42.4763973" lon="12.5633832"><ele>599.0</ele><time>2026-03-28T16:06:03.981Z</time></trkpt><trkpt lat="42.476324" lon="12.5633762"><ele>599.0</ele><time>2026-03-28T16:06:09.982Z</time></trkpt><trkpt lat="42.476253" lon="12.5633639"><ele>599.0</ele><time>2026-03-28T16:06:15.983Z</time></trkpt><trkpt lat="42.4761899" lon="12.5633569"><ele>599.0</ele><time>2026-03-28T16:06:20.983Z</time></trkpt><trkpt lat="42.4761226" lon="12.5633509"><ele>599.0</ele><time>2026-03-28T16:06:31.984Z</time></trkpt><trkpt lat="42.4760608" lon="12.5633271"><ele>599.0</ele><time>2026-03-28T16:06:38.982Z</time></trkpt><trkpt lat="42.4760024" lon="12.5632925"><ele>599.0</ele><time>2026-03-28T16:06:45.983Z</time></trkpt><trkpt lat="42.4759484" lon="12.5632318"><ele>599.8571428571429</ele><time>2026-03-28T16:06:52.981Z</time></trkpt><trkpt lat="42.4759003" lon="12.5631718"><ele>600.7142857142857</ele><time>2026-03-28T16:07:00.984Z</time></trkpt><trkpt lat="42.4758679" lon="12.5630956"><ele>601.5714285714286</ele><time>2026-03-28T16:07:07.985Z</time></trkpt><trkpt lat="42.4758355" lon="12.563011"><ele>602.4285714285714</ele><time>2026-03-28T16:07:13.984Z</time></trkpt><trkpt lat="42.4758088" lon="12.5629233"><ele>603.2857142857143</ele><time>2026-03-28T16:07:19.984Z</time></trkpt><trkpt lat="42.4757852" lon="12.5628379"><ele>604.1428571428571</ele><time>2026-03-28T16:07:27.984Z</time></trkpt><trkpt lat="42.475757" lon="12.5627613"><ele>605.0</ele><time>2026-03-28T16:07:34.984Z</time></trkpt><trkpt lat="42.4757511" lon="12.5626666"><ele>605.0</ele><time>2026-03-28T16:07:42.983Z</time></trkpt><trkpt lat="42.4757595" lon="12.562578"><ele>605.0</ele><time>2026-03-28T16:07:49.985Z</time></trkpt><trkpt lat="42.4757334" lon="12.5624961"><ele>605.0</ele><time>2026-03-28T16:07:55.984Z</time></trkpt><trkpt lat="42.4756738" lon="12.562448"><ele>605.0</ele><time>2026-03-28T16:08:01.984Z</time></trkpt><trkpt lat="42.4756049" lon="12.5624482"><ele>605.0</ele><time>2026-03-28T16:08:07.985Z</time></trkpt><trkpt lat="42.4755409" lon="12.5624802"><ele>605.0</ele><time>2026-03-28T16:08:13.983Z</time></trkpt><trkpt lat="42.4754813" lon="12.5625223"><ele>605.0</ele><time>2026-03-28T16:08:20.983Z</time></trkpt><trkpt lat="42.4754148" lon="12.5625238"><ele>605.4285714285714</ele><time>2026-03-28T16:08:28.983Z</time></trkpt><trkpt lat="42.4753449" lon="12.5624989"><ele>605.8571428571429</ele><time>2026-03-28T16:08:35.984Z</time></trkpt><trkpt lat="42.4752803" lon="12.5624825"><ele>606.2857142857142</ele><time>2026-03-28T16:08:42.984Z</time></trkpt><trkpt lat="42.4752251" lon="12.5624341"><ele>606.7142857142858</ele><time>2026-03-28T16:08:48.983Z</time></trkpt><trkpt lat="42.4751645" lon="12.5623965"><ele>607.1428571428572</ele><time>2026-03-28T16:08:55.983Z</time></trkpt><trkpt lat="42.4751025" lon="12.5623794"><ele>607.5714285714286</ele><time>2026-03-28T16:09:01.985Z</time></trkpt><trkpt lat="42.475042" lon="12.5623488"><ele>608.0</ele><time>2026-03-28T16:09:09.985Z</time></trkpt><trkpt lat="42.4749891" lon="12.5622992"><ele>608.0</ele><time>2026-03-28T16:09:18.983Z</time></trkpt><trkpt lat="42.474925" lon="12.5622742"><ele>608.0</ele><time>2026-03-28T16:09:37.983Z</time></trkpt><trkpt lat="42.474857" lon="12.5622713"><ele>608.0</ele><time>2026-03-28T16:09:44.982Z</time></trkpt><trkpt lat="42.4747886" lon="12.5623011"><ele>608.0</ele><time>2026-03-28T16:09:50.984Z</time></trkpt><trkpt lat="42.4748584" lon="12.5623077"><ele>608.0</ele><time>2026-03-28T16:15:09.982Z</time></trkpt><trkpt lat="42.4749384" lon="12.5623104"><ele>608.0</ele><time>2026-03-28T16:15:18.981Z</time></trkpt><trkpt lat="42.475004" lon="12.5623295"><ele>608.0</ele><time>2026-03-28T16:15:29.982Z</time></trkpt><trkpt lat="42.4750706" lon="12.562382"><ele>608.0</ele><time>2026-03-28T16:15:37.981Z</time></trkpt><trkpt lat="42.4751264" lon="12.5624232"><ele>608.0</ele><time>2026-03-28T16:15:41.981Z</time></trkpt><trkpt lat="42.4751906" lon="12.5624464"><ele>608.0</ele><time>2026-03-28T16:15:46.981Z</time></trkpt><trkpt lat="42.47526" lon="12.562461"><ele>608.0</ele><time>2026-03-28T16:15:53.982Z</time></trkpt><trkpt lat="42.4754375" lon="12.5624672"><ele>608.0</ele><time>2026-03-28T16:16:09.981Z</time></trkpt><trkpt lat="42.4755033" lon="12.5624939"><ele>608.0</ele><time>2026-03-28T16:16:15.983Z</time></trkpt><trkpt lat="42.4755802" lon="12.562492"><ele>608.0</ele><time>2026-03-28T16:16:23.983Z</time></trkpt><trkpt lat="42.4756849" lon="12.562471"><ele>608.0</ele><time>2026-03-28T16:16:32.985Z</time></trkpt><trkpt lat="42.4757383" lon="12.5625239"><ele>608.0</ele><time>2026-03-28T16:16:38.986Z</time></trkpt><trkpt lat="42.4757757" lon="12.5626795"><ele>608.0</ele><time>2026-03-28T16:16:52.984Z</time></trkpt><trkpt lat="42.4757922" lon="12.5627718"><ele>608.0</ele><time>2026-03-28T16:16:59.985Z</time></trkpt><trkpt lat="42.4758027" lon="12.5628662"><ele>608.0</ele><time>2026-03-28T16:17:05.984Z</time></trkpt><trkpt lat="42.4758136" lon="12.5629536"><ele>608.0</ele><time>2026-03-28T16:17:11.985Z</time></trkpt><trkpt lat="42.4758267" lon="12.5630422"><ele>608.0</ele><time>2026-03-28T16:17:18.985Z</time></trkpt><trkpt lat="42.4758543" lon="12.5631304"><ele>608.0</ele><time>2026-03-28T16:17:25.986Z</time></trkpt><trkpt lat="42.4758921" lon="12.5632089"><ele>608.0</ele><time>2026-03-28T16:17:34.985Z</time></trkpt><trkpt lat="42.4759372" lon="12.5632816"><ele>608.0</ele><time>2026-03-28T16:17:43.985Z</time></trkpt><trkpt lat="42.4759924" lon="12.5633374"><ele>608.0</ele><time>2026-03-28T16:17:51.987Z</time></trkpt><trkpt lat="42.4760635" lon="12.5633648"><ele>608.0</ele><time>2026-03-28T16:17:58.982Z</time></trkpt><trkpt lat="42.4761406" lon="12.5633785"><ele>608.0</ele><time>2026-03-28T16:18:04.983Z</time></trkpt><trkpt lat="42.4762099" lon="12.5633982"><ele>608.0</ele><time>2026-03-28T16:18:09.985Z</time></trkpt><trkpt lat="42.4762726" lon="12.5634127"><ele>608.0</ele><time>2026-03-28T16:18:16.985Z</time></trkpt><trkpt lat="42.4763411" lon="12.563412"><ele>608.0</ele><time>2026-03-28T16:18:24.985Z</time></trkpt><trkpt lat="42.4764103" lon="12.5634294"><ele>608.0</ele><time>2026-03-28T16:18:31.983Z</time></trkpt><trkpt lat="42.4764749" lon="12.5634443"><ele>608.0</ele><time>2026-03-28T16:18:37.984Z</time></trkpt><trkpt lat="42.4765415" lon="12.563457"><ele>608.0</ele><time>2026-03-28T16:18:42.985Z</time></trkpt><trkpt lat="42.4766104" lon="12.5634871"><ele>606.7142857142857</ele><time>2026-03-28T16:18:49.985Z</time></trkpt><trkpt lat="42.4766598" lon="12.5635452"><ele>605.4285714285714</ele><time>2026-03-28T16:18:59.985Z</time></trkpt><trkpt lat="42.4766991" lon="12.5636253"><ele>604.1428571428571</ele><time>2026-03-28T16:19:06.984Z</time></trkpt><trkpt lat="42.4767511" lon="12.5636944"><ele>602.8571428571429</ele><time>2026-03-28T16:19:13.982Z</time></trkpt><trkpt lat="42.4767979" lon="12.5637525"><ele>601.5714285714286</ele><time>2026-03-28T16:19:19.985Z</time></trkpt><trkpt lat="42.4768357" lon="12.5638261"><ele>600.2857142857143</ele><time>2026-03-28T16:19:24.983Z</time></trkpt><trkpt lat="42.4768901" lon="12.5638943"><ele>599.0</ele><time>2026-03-28T16:19:30.985Z</time></trkpt><trkpt lat="42.4769324" lon="12.5639692"><ele>599.0</ele><time>2026-03-28T16:19:37.984Z</time></trkpt><trkpt lat="42.4769654" lon="12.5640483"><ele>599.0</ele><time>2026-03-28T16:19:45.985Z</time></trkpt><trkpt lat="42.4769887" lon="12.5641319"><ele>599.0</ele><time>2026-03-28T16:19:52.985Z</time></trkpt><trkpt lat="42.477013" lon="12.5642162"><ele>599.0</ele><time>2026-03-28T16:19:59.985Z</time></trkpt><trkpt lat="42.4770316" lon="12.5643065"><ele>599.0</ele><time>2026-03-28T16:20:06.986Z</time></trkpt><trkpt lat="42.4770562" lon="12.5643892"><ele>599.0</ele><time>2026-03-28T16:20:12.985Z</time></trkpt><trkpt lat="42.4770791" lon="12.5644748"><ele>599.0</ele><time>2026-03-28T16:20:19.985Z</time></trkpt><trkpt lat="42.4771151" lon="12.5645485"><ele>599.4285714285714</ele><time>2026-03-28T16:20:26.985Z</time></trkpt><trkpt lat="42.4771575" lon="12.5646214"><ele>599.8571428571429</ele><time>2026-03-28T16:20:33.983Z</time></trkpt><trkpt lat="42.4771946" lon="12.5646938"><ele>600.2857142857142</ele><time>2026-03-28T16:20:40.986Z</time></trkpt><trkpt lat="42.4772365" lon="12.5647652"><ele>600.7142857142858</ele><time>2026-03-28T16:20:46.984Z</time></trkpt><trkpt lat="42.477287" lon="12.5648353"><ele>601.1428571428571</ele><time>2026-03-28T16:20:52.985Z</time></trkpt><trkpt lat="42.4773086" lon="12.5649188"><ele>601.5714285714286</ele><time>2026-03-28T16:20:58.986Z</time></trkpt><trkpt lat="42.4773606" lon="12.5649787"><ele>602.0</ele><time>2026-03-28T16:21:06.987Z</time></trkpt><trkpt lat="42.4773896" lon="12.5650571"><ele>602.0</ele><time>2026-03-28T16:21:12.986Z</time></trkpt><trkpt lat="42.4774332" lon="12.5651374"><ele>602.0</ele><time>2026-03-28T16:21:19.987Z</time></trkpt><trkpt lat="42.4774691" lon="12.5652095"><ele>602.0</ele><time>2026-03-28T16:21:25.986Z</time></trkpt><trkpt lat="42.4775125" lon="12.5652784"><ele>602.0</ele><time>2026-03-28T16:21:32.986Z</time></trkpt><trkpt lat="42.4775581" lon="12.5653427"><ele>602.0</ele><time>2026-03-28T16:21:39.986Z</time></trkpt><trkpt lat="42.4776068" lon="12.5654054"><ele>602.0</ele><time>2026-03-28T16:21:55.986Z</time></trkpt><trkpt lat="42.4776592" lon="12.5654536"><ele>602.0</ele><time>2026-03-28T16:22:00.986Z</time></trkpt><trkpt lat="42.4777168" lon="12.565494"><ele>600.2857142857143</ele><time>2026-03-28T16:22:06.983Z</time></trkpt><trkpt lat="42.4777808" lon="12.5655283"><ele>598.5714285714286</ele><time>2026-03-28T16:22:13.987Z</time></trkpt><trkpt lat="42.4778438" lon="12.5655561"><ele>596.8571428571429</ele><time>2026-03-28T16:22:20.986Z</time></trkpt><trkpt lat="42.4779126" lon="12.5655716"><ele>595.1428571428571</ele><time>2026-03-28T16:22:29.986Z</time></trkpt><trkpt lat="42.4779824" lon="12.5655921"><ele>593.4285714285714</ele><time>2026-03-28T16:22:36.986Z</time></trkpt><trkpt lat="42.4780494" lon="12.5655953"><ele>591.7142857142858</ele><time>2026-03-28T16:22:42.986Z</time></trkpt><trkpt lat="42.4781125" lon="12.5656185"><ele>590.0</ele><time>2026-03-28T16:22:48.984Z</time></trkpt><trkpt lat="42.4781821" lon="12.5656399"><ele>590.0000000000001</ele><time>2026-03-28T16:22:54.986Z</time></trkpt><trkpt lat="42.4782431" lon="12.5656639"><ele>590.0</ele><time>2026-03-28T16:22:59.986Z</time></trkpt><trkpt lat="42.4783117" lon="12.5656778"><ele>590.0</ele><time>2026-03-28T16:23:07.986Z</time></trkpt><trkpt lat="42.4783871" lon="12.5656894"><ele>590.0</ele><time>2026-03-28T16:23:13.986Z</time></trkpt><trkpt lat="42.478451" lon="12.5657084"><ele>590.0</ele><time>2026-03-28T16:23:19.985Z</time></trkpt><trkpt lat="42.4785109" lon="12.5657372"><ele>590.0000000000001</ele><time>2026-03-28T16:23:30.985Z</time></trkpt><trkpt lat="42.4785755" lon="12.5657458"><ele>590.0</ele><time>2026-03-28T16:23:37.986Z</time></trkpt><trkpt lat="42.4786762" lon="12.5657529"><ele>590.0</ele><time>2026-03-28T16:23:46.987Z</time></trkpt><trkpt lat="42.4787408" lon="12.565788"><ele>590.0</ele><time>2026-03-28T16:23:52.986Z</time></trkpt><trkpt lat="42.4788369" lon="12.565824"><ele>590.0</ele><time>2026-03-28T16:24:02.983Z</time></trkpt><trkpt lat="42.4789698" lon="12.5658458"><ele>590.0</ele><time>2026-03-28T16:24:19.987Z</time></trkpt><trkpt lat="42.4790328" lon="12.5658858"><ele>590.0</ele><time>2026-03-28T16:24:47.985Z</time></trkpt><trkpt lat="42.4791041" lon="12.5658995"><ele>590.0</ele><time>2026-03-28T16:24:55.985Z</time></trkpt><trkpt lat="42.4791688" lon="12.5659346"><ele>590.2857142857143</ele><time>2026-03-28T16:25:02.986Z</time></trkpt><trkpt lat="42.4792266" lon="12.565973"><ele>590.5714285714286</ele><time>2026-03-28T16:25:08.986Z</time></trkpt><trkpt lat="42.4792809" lon="12.5660286"><ele>590.8571428571429</ele><time>2026-03-28T16:25:14.986Z</time></trkpt><trkpt lat="42.4793368" lon="12.5660903"><ele>591.1428571428571</ele><time>2026-03-28T16:25:21.986Z</time></trkpt><trkpt lat="42.4793863" lon="12.5661544"><ele>591.4285714285714</ele><time>2026-03-28T16:25:27.986Z</time></trkpt><trkpt lat="42.4794339" lon="12.5662213"><ele>591.7142857142858</ele><time>2026-03-28T16:25:35.986Z</time></trkpt><trkpt lat="42.4794872" lon="12.5662676"><ele>592.0</ele><time>2026-03-28T16:25:42.985Z</time></trkpt><trkpt lat="42.4795392" lon="12.5663162"><ele>589.7142857142858</ele><time>2026-03-28T16:25:49.985Z</time></trkpt><trkpt lat="42.4795892" lon="12.5663836"><ele>587.4285714285714</ele><time>2026-03-28T16:25:56.981Z</time></trkpt><trkpt lat="42.4796209" lon="12.5664665"><ele>585.1428571428571</ele><time>2026-03-28T16:26:04.981Z</time></trkpt><trkpt lat="42.4796422" lon="12.5665519"><ele>582.8571428571429</ele><time>2026-03-28T16:26:12.985Z</time></trkpt><trkpt lat="42.4796593" lon="12.5666416"><ele>580.5714285714286</ele><time>2026-03-28T16:26:18.985Z</time></trkpt><trkpt lat="42.4796692" lon="12.5667365"><ele>578.2857142857143</ele><time>2026-03-28T16:26:24.984Z</time></trkpt><trkpt lat="42.4796624" lon="12.5668288"><ele>576.0</ele><time>2026-03-28T16:26:31.985Z</time></trkpt><trkpt lat="42.4796765" lon="12.5669218"><ele>576.0</ele><time>2026-03-28T16:26:38.985Z</time></trkpt><trkpt lat="42.4796786" lon="12.5670112"><ele>576.0</ele><time>2026-03-28T16:26:44.985Z</time></trkpt><trkpt lat="42.4796891" lon="12.567106"><ele>576.0</ele><time>2026-03-28T16:26:51.984Z</time></trkpt><trkpt lat="42.4796965" lon="12.5672025"><ele>576.0</ele><time>2026-03-28T16:26:59.985Z</time></trkpt><trkpt lat="42.4796983" lon="12.567297"><ele>576.0</ele><time>2026-03-28T16:27:06.984Z</time></trkpt><trkpt lat="42.479708" lon="12.5673855"><ele>576.0</ele><time>2026-03-28T16:27:12.984Z</time></trkpt><trkpt lat="42.4798303" lon="12.567473"><ele>575.1428571428572</ele><time>2026-03-28T16:28:08.986Z</time></trkpt><trkpt lat="42.4799018" lon="12.5674571"><ele>574.2857142857143</ele><time>2026-03-28T16:28:14.981Z</time></trkpt><trkpt lat="42.4799719" lon="12.5674379"><ele>573.4285714285714</ele><time>2026-03-28T16:28:20.981Z</time></trkpt><trkpt lat="42.4800365" lon="12.5674253"><ele>572.5714285714287</ele><time>2026-03-28T16:28:25.98Z</time></trkpt><trkpt lat="42.4800994" lon="12.5674075"><ele>571.7142857142858</ele><time>2026-03-28T16:28:32.981Z</time></trkpt><trkpt lat="42.4801586" lon="12.5673695"><ele>570.8571428571429</ele><time>2026-03-28T16:28:38.981Z</time></trkpt><trkpt lat="42.4802176" lon="12.5673395"><ele>570.0</ele><time>2026-03-28T16:28:44.982Z</time></trkpt><trkpt lat="42.4802834" lon="12.5673116"><ele>570.0</ele><time>2026-03-28T16:28:51.983Z</time></trkpt><trkpt lat="42.4803497" lon="12.5672781"><ele>570.0</ele><time>2026-03-28T16:28:56.986Z</time></trkpt><trkpt lat="42.4804194" lon="12.567247"><ele>570.0</ele><time>2026-03-28T16:29:02.982Z</time></trkpt><trkpt lat="42.4804821" lon="12.5672373"><ele>570.0</ele><time>2026-03-28T16:29:08.986Z</time></trkpt><trkpt lat="42.4805375" lon="12.5671821"><ele>570.0</ele><time>2026-03-28T16:29:15.982Z</time></trkpt><trkpt lat="42.4805923" lon="12.5671347"><ele>570.0</ele><time>2026-03-28T16:29:22.982Z</time></trkpt><trkpt lat="42.4806506" lon="12.5670811"><ele>570.0</ele><time>2026-03-28T16:29:29.982Z</time></trkpt><trkpt lat="42.4806943" lon="12.5670151"><ele>569.1428571428571</ele><time>2026-03-28T16:29:36.984Z</time></trkpt><trkpt lat="42.48072" lon="12.5669319"><ele>568.2857142857143</ele><time>2026-03-28T16:29:44.986Z</time></trkpt><trkpt lat="42.4807388" lon="12.5668417"><ele>567.4285714285714</ele><time>2026-03-28T16:29:52.985Z</time></trkpt><trkpt lat="42.4807407" lon="12.5667521"><ele>566.5714285714286</ele><time>2026-03-28T16:29:58.982Z</time></trkpt><trkpt lat="42.4807693" lon="12.5666729"><ele>565.7142857142857</ele><time>2026-03-28T16:30:05.984Z</time></trkpt><trkpt lat="42.4808039" lon="12.5665983"><ele>564.8571428571429</ele><time>2026-03-28T16:30:12.986Z</time></trkpt><trkpt lat="42.4808232" lon="12.5665143"><ele>564.0</ele><time>2026-03-28T16:30:19.985Z</time></trkpt><trkpt lat="42.4808403" lon="12.5664228"><ele>564.0</ele><time>2026-03-28T16:30:27.986Z</time></trkpt><trkpt lat="42.4808565" lon="12.5663331"><ele>564.0</ele><time>2026-03-28T16:30:34.986Z</time></trkpt><trkpt lat="42.4808831" lon="12.5662486"><ele>564.0</ele><time>2026-03-28T16:30:41.984Z</time></trkpt><trkpt lat="42.4809029" lon="12.5661661"><ele>564.0</ele><time>2026-03-28T16:30:48.985Z</time></trkpt><trkpt lat="42.4809146" lon="12.566076"><ele>564.0</ele><time>2026-03-28T16:30:54.985Z</time></trkpt><trkpt lat="42.48093" lon="12.5659837"><ele>564.0</ele><time>2026-03-28T16:31:00.985Z</time></trkpt><trkpt lat="42.4809467" lon="12.5658922"><ele>564.0</ele><time>2026-03-28T16:31:08.986Z</time></trkpt><trkpt lat="42.4809734" lon="12.5658015"><ele>564.4285714285714</ele><time>2026-03-28T16:31:15.981Z</time></trkpt><trkpt lat="42.4810147" lon="12.5657232"><ele>564.8571428571429</ele><time>2026-03-28T16:31:26.986Z</time></trkpt><trkpt lat="42.4810425" lon="12.5656445"><ele>565.2857142857142</ele><time>2026-03-28T16:31:34.986Z</time></trkpt><trkpt lat="42.4810088" lon="12.5657463"><ele>565.7142857142858</ele><time>2026-03-28T16:32:45.985Z</time></trkpt><trkpt lat="42.4810342" lon="12.5656643"><ele>566.1428571428571</ele><time>2026-03-28T16:33:55.984Z</time></trkpt><trkpt lat="42.4810893" lon="12.565611"><ele>566.5714285714286</ele><time>2026-03-28T16:34:01.985Z</time></trkpt><trkpt lat="42.481144" lon="12.5655563"><ele>567.0</ele><time>2026-03-28T16:34:06.984Z</time></trkpt><trkpt lat="42.4811956" lon="12.5654847"><ele>567.0</ele><time>2026-03-28T16:34:11.984Z</time></trkpt><trkpt lat="42.4812313" lon="12.5654106"><ele>567.0</ele><time>2026-03-28T16:34:16.985Z</time></trkpt><trkpt lat="42.4812867" lon="12.5653502"><ele>567.0</ele><time>2026-03-28T16:34:24.982Z</time></trkpt><trkpt lat="42.4813337" lon="12.5652818"><ele>567.0</ele><time>2026-03-28T16:34:31.985Z</time></trkpt><trkpt lat="42.4814008" lon="12.5652501"><ele>567.0</ele><time>2026-03-28T16:34:37.986Z</time></trkpt><trkpt lat="42.4814649" lon="12.565215"><ele>567.0</ele><time>2026-03-28T16:34:43.986Z</time></trkpt><trkpt lat="42.4815339" lon="12.5651914"><ele>567.0</ele><time>2026-03-28T16:34:49.985Z</time></trkpt><trkpt lat="42.4815991" lon="12.5651645"><ele>566.1428571428571</ele><time>2026-03-28T16:34:55.986Z</time></trkpt><trkpt lat="42.4816646" lon="12.5651411"><ele>565.2857142857142</ele><time>2026-03-28T16:35:01.984Z</time></trkpt><trkpt lat="42.4817278" lon="12.5651129"><ele>564.4285714285714</ele><time>2026-03-28T16:35:07.986Z</time></trkpt><trkpt lat="42.4817889" lon="12.5650783"><ele>563.5714285714286</ele><time>2026-03-28T16:35:14.982Z</time></trkpt><trkpt lat="42.4818454" lon="12.56503"><ele>562.7142857142857</ele><time>2026-03-28T16:35:22.985Z</time></trkpt><trkpt lat="42.4819103" lon="12.5649884"><ele>561.8571428571429</ele><time>2026-03-28T16:35:30.986Z</time></trkpt><trkpt lat="42.4819765" lon="12.5649544"><ele>561.0</ele><time>2026-03-28T16:35:37.982Z</time></trkpt><trkpt lat="42.4820348" lon="12.5649212"><ele>560.1428571428571</ele><time>2026-03-28T16:35:43.987Z</time></trkpt><trkpt lat="42.4821003" lon="12.5648814"><ele>559.2857142857142</ele><time>2026-03-28T16:35:50.987Z</time></trkpt><trkpt lat="42.4821678" lon="12.5648566"><ele>558.4285714285714</ele><time>2026-03-28T16:35:57.985Z</time></trkpt><trkpt lat="42.4822345" lon="12.564822"><ele>557.5714285714286</ele><time>2026-03-28T16:36:04.986Z</time></trkpt><trkpt lat="42.482295" lon="12.5647908"><ele>556.7142857142858</ele><time>2026-03-28T16:36:10.985Z</time></trkpt><trkpt lat="42.4823556" lon="12.5647643"><ele>555.8571428571429</ele><time>2026-03-28T16:36:17.985Z</time></trkpt><trkpt lat="42.4824213" lon="12.5647416"><ele>555.0</ele><time>2026-03-28T16:36:25.986Z</time></trkpt><trkpt lat="42.4824438" lon="12.5646584"><ele>555.0000000000001</ele><time>2026-03-28T16:36:33.985Z</time></trkpt><trkpt lat="42.4824798" lon="12.5645794"><ele>555.0</ele><time>2026-03-28T16:36:41.98Z</time></trkpt><trkpt lat="42.4824921" lon="12.5644954"><ele>555.0</ele><time>2026-03-28T16:36:49.981Z</time></trkpt><trkpt lat="42.482518" lon="12.5644137"><ele>555.0</ele><time>2026-03-28T16:36:57.98Z</time></trkpt><trkpt lat="42.4825213" lon="12.5643177"><ele>555.0</ele><time>2026-03-28T16:37:05.986Z</time></trkpt><trkpt lat="42.4825207" lon="12.564221"><ele>555.0000000000001</ele><time>2026-03-28T16:37:13.981Z</time></trkpt><trkpt lat="42.4825092" lon="12.5641295"><ele>555.0</ele><time>2026-03-28T16:37:19.98Z</time></trkpt><trkpt lat="42.4825335" lon="12.5640477"><ele>556.2857142857143</ele><time>2026-03-28T16:37:26.981Z</time></trkpt><trkpt lat="42.4825475" lon="12.5639614"><ele>557.5714285714286</ele><time>2026-03-28T16:37:32.982Z</time></trkpt><trkpt lat="42.4825857" lon="12.5638848"><ele>558.8571428571429</ele><time>2026-03-28T16:37:38.981Z</time></trkpt><trkpt lat="42.4826362" lon="12.5638214"><ele>560.1428571428571</ele><time>2026-03-28T16:37:44.984Z</time></trkpt><trkpt lat="42.4826986" lon="12.563793"><ele>561.4285714285714</ele><time>2026-03-28T16:37:51.981Z</time></trkpt><trkpt lat="42.4827569" lon="12.5637347"><ele>562.7142857142858</ele><time>2026-03-28T16:37:58.981Z</time></trkpt><trkpt lat="42.4828123" lon="12.5636841"><ele>564.0</ele><time>2026-03-28T16:38:04.982Z</time></trkpt><trkpt lat="42.4828723" lon="12.5636263"><ele>563.1428571428571</ele><time>2026-03-28T16:38:11.981Z</time></trkpt><trkpt lat="42.4829253" lon="12.5635706"><ele>562.2857142857142</ele><time>2026-03-28T16:38:17.983Z</time></trkpt><trkpt lat="42.4829784" lon="12.5635143"><ele>561.4285714285713</ele><time>2026-03-28T16:38:23.981Z</time></trkpt><trkpt lat="42.4830282" lon="12.5634561"><ele>560.5714285714286</ele><time>2026-03-28T16:38:29.981Z</time></trkpt><trkpt lat="42.4830791" lon="12.5634037"><ele>559.7142857142857</ele><time>2026-03-28T16:38:37.982Z</time></trkpt><trkpt lat="42.4831116" lon="12.5633226"><ele>558.8571428571428</ele><time>2026-03-28T16:39:20.982Z</time></trkpt><trkpt lat="42.48313" lon="12.5632347"><ele>558.0</ele><time>2026-03-28T16:39:26.982Z</time></trkpt><trkpt lat="42.4831396" lon="12.5631478"><ele>557.9999999999999</ele><time>2026-03-28T16:39:40.98Z</time></trkpt><trkpt lat="42.4831617" lon="12.56306"><ele>558.0</ele><time>2026-03-28T16:39:47.983Z</time></trkpt><trkpt lat="42.4831717" lon="12.5629672"><ele>558.0</ele><time>2026-03-28T16:39:55.982Z</time></trkpt><trkpt lat="42.4831858" lon="12.5628756"><ele>558.0</ele><time>2026-03-28T16:40:03.982Z</time></trkpt><trkpt lat="42.4831978" lon="12.5627776"><ele>558.0</ele><time>2026-03-28T16:40:09.986Z</time></trkpt><trkpt lat="42.483196" lon="12.5626798"><ele>557.9999999999999</ele><time>2026-03-28T16:40:15.985Z</time></trkpt><trkpt lat="42.483208" lon="12.5625892"><ele>558.0</ele><time>2026-03-28T16:40:23.986Z</time></trkpt><trkpt lat="42.4832206" lon="12.5625003"><ele>557.4285714285713</ele><time>2026-03-28T16:40:30.985Z</time></trkpt><trkpt lat="42.4832106" lon="12.562408"><ele>556.8571428571429</ele><time>2026-03-28T16:40:37.986Z</time></trkpt><trkpt lat="42.4831965" lon="12.562312"><ele>556.2857142857142</ele><time>2026-03-28T16:40:44.986Z</time></trkpt><trkpt lat="42.4831807" lon="12.5622213"><ele>555.7142857142857</ele><time>2026-03-28T16:40:51.984Z</time></trkpt><trkpt lat="42.4831813" lon="12.5621236"><ele>555.1428571428571</ele><time>2026-03-28T16:40:58.986Z</time></trkpt><trkpt lat="42.4831824" lon="12.5620322"><ele>554.5714285714286</ele><time>2026-03-28T16:41:05.986Z</time></trkpt><trkpt lat="42.4831845" lon="12.5619396"><ele>554.0</ele><time>2026-03-28T16:41:14.986Z</time></trkpt><trkpt lat="42.4831754" lon="12.5618472"><ele>553.4285714285714</ele><time>2026-03-28T16:41:22.986Z</time></trkpt><trkpt lat="42.4831699" lon="12.5617591"><ele>552.8571428571428</ele><time>2026-03-28T16:41:32.986Z</time></trkpt><trkpt lat="42.4831716" lon="12.5616624"><ele>552.2857142857142</ele><time>2026-03-28T16:41:40.985Z</time></trkpt><trkpt lat="42.4831826" lon="12.5615694"><ele>551.7142857142857</ele><time>2026-03-28T16:41:46.986Z</time></trkpt><trkpt lat="42.4831945" lon="12.5614726"><ele>551.1428571428571</ele><time>2026-03-28T16:41:52.982Z</time></trkpt><trkpt lat="42.4832328" lon="12.5613913"><ele>550.5714285714286</ele><time>2026-03-28T16:41:58.983Z</time></trkpt><trkpt lat="42.4832612" lon="12.5613132"><ele>550.0</ele><time>2026-03-28T16:42:06.986Z</time></trkpt><trkpt lat="42.4833265" lon="12.5612764"><ele>550.0</ele><time>2026-03-28T16:42:20.987Z</time></trkpt><trkpt lat="42.4833842" lon="12.5612233"><ele>550.0</ele><time>2026-03-28T16:42:26.984Z</time></trkpt><trkpt lat="42.4834428" lon="12.5611846"><ele>550.0</ele><time>2026-03-28T16:42:33.985Z</time></trkpt><trkpt lat="42.4835032" lon="12.5611454"><ele>550.0</ele><time>2026-03-28T16:42:39.984Z</time></trkpt><trkpt lat="42.4835714" lon="12.5611164"><ele>550.0</ele><time>2026-03-28T16:42:45.986Z</time></trkpt><trkpt lat="42.4836345" lon="12.5610871"><ele>550.0</ele><time>2026-03-28T16:42:51.986Z</time></trkpt><trkpt lat="42.4836962" lon="12.5610623"><ele>550.0</ele><time>2026-03-28T16:42:57.984Z</time></trkpt><trkpt lat="42.4837532" lon="12.5610041"><ele>549.7142857142858</ele><time>2026-03-28T16:43:04.985Z</time></trkpt><trkpt lat="42.4838067" lon="12.5609469"><ele>549.4285714285714</ele><time>2026-03-28T16:43:11.987Z</time></trkpt><trkpt lat="42.4838669" lon="12.5609164"><ele>549.1428571428571</ele><time>2026-03-28T16:43:16.986Z</time></trkpt><trkpt lat="42.4839302" lon="12.5608746"><ele>548.8571428571429</ele><time>2026-03-28T16:43:22.983Z</time></trkpt><trkpt lat="42.4839883" lon="12.5608397"><ele>548.5714285714286</ele><time>2026-03-28T16:43:28.985Z</time></trkpt><trkpt lat="42.4840452" lon="12.5607981"><ele>548.2857142857143</ele><time>2026-03-28T16:43:34.985Z</time></trkpt><trkpt lat="42.4840984" lon="12.5607486"><ele>548.0</ele><time>2026-03-28T16:43:41.987Z</time></trkpt><trkpt lat="42.484161" lon="12.5607013"><ele>548.0000000000001</ele><time>2026-03-28T16:43:48.985Z</time></trkpt><trkpt lat="42.4842037" lon="12.5606219"><ele>548.0</ele><time>2026-03-28T16:43:55.983Z</time></trkpt><trkpt lat="42.4842402" lon="12.5605458"><ele>548.0</ele><time>2026-03-28T16:44:01.985Z</time></trkpt><trkpt lat="42.4842717" lon="12.5604704"><ele>548.0</ele><time>2026-03-28T16:44:08.986Z</time></trkpt><trkpt lat="42.4842872" lon="12.5603772"><ele>548.0</ele><time>2026-03-28T16:44:16.982Z</time></trkpt><trkpt lat="42.4843051" lon="12.5602915"><ele>548.0000000000001</ele><time>2026-03-28T16:44:24.984Z</time></trkpt><trkpt lat="42.484317" lon="12.5602041"><ele>548.0</ele><time>2026-03-28T16:44:31.985Z</time></trkpt><trkpt lat="42.4843374" lon="12.5601133"><ele>549.7142857142858</ele><time>2026-03-28T16:44:37.985Z</time></trkpt><trkpt lat="42.4843636" lon="12.5600331"><ele>551.4285714285714</ele><time>2026-03-28T16:44:42.987Z</time></trkpt><trkpt lat="42.4844343" lon="12.5599889"><ele>553.1428571428571</ele><time>2026-03-28T16:45:41.986Z</time></trkpt><trkpt lat="42.4844121" lon="12.5598938"><ele>554.8571428571429</ele><time>2026-03-28T16:45:47.985Z</time></trkpt><trkpt lat="42.4844102" lon="12.5597953"><ele>556.5714285714286</ele><time>2026-03-28T16:45:55.985Z</time></trkpt><trkpt lat="42.4843839" lon="12.5597075"><ele>558.2857142857143</ele><time>2026-03-28T16:46:06.984Z</time></trkpt><trkpt lat="42.4844058" lon="12.5596167"><ele>560.0</ele><time>2026-03-28T16:46:12.987Z</time></trkpt><trkpt lat="42.4844346" lon="12.5595393"><ele>559.8571428571429</ele><time>2026-03-28T16:46:18.987Z</time></trkpt><trkpt lat="42.4844698" lon="12.559465"><ele>559.7142857142858</ele><time>2026-03-28T16:46:23.986Z</time></trkpt><trkpt lat="42.4845036" lon="12.5593822"><ele>559.5714285714286</ele><time>2026-03-28T16:46:29.986Z</time></trkpt><trkpt lat="42.4845247" lon="12.5592922"><ele>559.4285714285714</ele><time>2026-03-28T16:46:36.986Z</time></trkpt><trkpt lat="42.4845466" lon="12.559206"><ele>559.2857142857143</ele><time>2026-03-28T16:47:06.98Z</time></trkpt><trkpt lat="42.4845567" lon="12.5591073"><ele>559.1428571428571</ele><time>2026-03-28T16:47:13.98Z</time></trkpt><trkpt lat="42.4845861" lon="12.5590204"><ele>559.0</ele><time>2026-03-28T16:47:19.981Z</time></trkpt><trkpt lat="42.4846012" lon="12.5589294"><ele>556.8571428571429</ele><time>2026-03-28T16:47:25.98Z</time></trkpt><trkpt lat="42.4846213" lon="12.5588398"><ele>554.7142857142858</ele><time>2026-03-28T16:47:32.982Z</time></trkpt><trkpt lat="42.4846479" lon="12.5587568"><ele>552.5714285714286</ele><time>2026-03-28T16:47:39.981Z</time></trkpt><trkpt lat="42.4846915" lon="12.5586944"><ele>550.4285714285714</ele><time>2026-03-28T16:47:45.98Z</time></trkpt><trkpt lat="42.4847553" lon="12.5586529"><ele>548.2857142857142</ele><time>2026-03-28T16:47:51.981Z</time></trkpt><trkpt lat="42.4848264" lon="12.5586158"><ele>546.1428571428571</ele><time>2026-03-28T16:47:57.982Z</time></trkpt><trkpt lat="42.4848849" lon="12.5585732"><ele>544.0</ele><time>2026-03-28T16:48:03.982Z</time></trkpt><trkpt lat="42.4849478" lon="12.55855"><ele>543.9999999999999</ele><time>2026-03-28T16:48:09.981Z</time></trkpt><trkpt lat="42.4850104" lon="12.5585611"><ele>544.0</ele><time>2026-03-28T16:48:16.981Z</time></trkpt><trkpt lat="42.4850733" lon="12.5585867"><ele>544.0</ele><time>2026-03-28T16:48:24.982Z</time></trkpt><trkpt lat="42.4851444" lon="12.558588"><ele>544.0</ele><time>2026-03-28T16:48:32.983Z</time></trkpt><trkpt lat="42.4852151" lon="12.5585622"><ele>544.0</ele><time>2026-03-28T16:48:38.982Z</time></trkpt><trkpt lat="42.4852865" lon="12.5585404"><ele>543.9999999999999</ele><time>2026-03-28T16:48:46.983Z</time></trkpt><trkpt lat="42.4853498" lon="12.5585417"><ele>544.0</ele><time>2026-03-28T16:48:52.981Z</time></trkpt><trkpt lat="42.4854208" lon="12.558548"><ele>544.1428571428571</ele><time>2026-03-28T16:48:59.981Z</time></trkpt><trkpt lat="42.485487" lon="12.5585748"><ele>544.2857142857142</ele><time>2026-03-28T16:49:06.981Z</time></trkpt><trkpt lat="42.485554" lon="12.5585998"><ele>544.4285714285714</ele><time>2026-03-28T16:49:13.981Z</time></trkpt><trkpt lat="42.4856514" lon="12.5586094"><ele>544.5714285714286</ele><time>2026-03-28T16:49:25.981Z</time></trkpt><trkpt lat="42.4857198" lon="12.55859"><ele>544.7142857142858</ele><time>2026-03-28T16:49:35.981Z</time></trkpt><trkpt lat="42.4856555" lon="12.5585854"><ele>544.8571428571429</ele><time>2026-03-28T16:50:43.983Z</time></trkpt><trkpt lat="42.4855909" lon="12.5585675"><ele>545.0</ele><time>2026-03-28T16:50:58.984Z</time></trkpt><trkpt lat="42.4855225" lon="12.5585801"><ele>545.0</ele><time>2026-03-28T16:51:02.984Z</time></trkpt><trkpt lat="42.4854551" lon="12.5585581"><ele>545.0</ele><time>2026-03-28T16:51:06.983Z</time></trkpt><trkpt lat="42.4853811" lon="12.5585414"><ele>545.0</ele><time>2026-03-28T16:51:12.982Z</time></trkpt><trkpt lat="42.4853105" lon="12.5585407"><ele>545.0</ele><time>2026-03-28T16:51:17.983Z</time></trkpt><trkpt lat="42.4852449" lon="12.5585467"><ele>545.0</ele><time>2026-03-28T16:51:22.984Z</time></trkpt><trkpt lat="42.4851743" lon="12.5585655"><ele>545.0</ele><time>2026-03-28T16:51:27.982Z</time></trkpt><trkpt lat="42.4851053" lon="12.558586"><ele>545.0</ele><time>2026-03-28T16:51:32.984Z</time></trkpt><trkpt lat="42.4850314" lon="12.5585677"><ele>544.8571428571429</ele><time>2026-03-28T16:51:37.982Z</time></trkpt><trkpt lat="42.4849594" lon="12.5585667"><ele>544.7142857142858</ele><time>2026-03-28T16:51:42.986Z</time></trkpt><trkpt lat="42.484894" lon="12.5585964"><ele>544.5714285714286</ele><time>2026-03-28T16:51:47.985Z</time></trkpt><trkpt lat="42.4848369" lon="12.5586363"><ele>544.4285714285714</ele><time>2026-03-28T16:51:52.984Z</time></trkpt><trkpt lat="42.4847675" lon="12.5586757"><ele>544.2857142857142</ele><time>2026-03-28T16:51:58.985Z</time></trkpt><trkpt lat="42.4847112" lon="12.5587425"><ele>544.1428571428571</ele><time>2026-03-28T16:52:04.984Z</time></trkpt><trkpt lat="42.4846793" lon="12.558829"><ele>544.0</ele><time>2026-03-28T16:52:09.984Z</time></trkpt><trkpt lat="42.4846583" lon="12.5589185"><ele>542.7142857142857</ele><time>2026-03-28T16:52:14.985Z</time></trkpt><trkpt lat="42.4846437" lon="12.559006"><ele>541.4285714285714</ele><time>2026-03-28T16:52:19.985Z</time></trkpt><trkpt lat="42.4846349" lon="12.5590909"><ele>540.1428571428571</ele><time>2026-03-28T16:52:24.985Z</time></trkpt><trkpt lat="42.48463" lon="12.559194"><ele>538.8571428571429</ele><time>2026-03-28T16:52:29.987Z</time></trkpt><trkpt lat="42.4846087" lon="12.559288"><ele>537.5714285714286</ele><time>2026-03-28T16:52:34.981Z</time></trkpt><trkpt lat="42.4845878" lon="12.5593855"><ele>536.2857142857142</ele><time>2026-03-28T16:52:39.981Z</time></trkpt><trkpt lat="42.484561" lon="12.5594656"><ele>535.0</ele><time>2026-03-28T16:52:44.981Z</time></trkpt><trkpt lat="42.4845272" lon="12.5595547"><ele>538.5714285714286</ele><time>2026-03-28T16:52:50.985Z</time></trkpt><trkpt lat="42.4844983" lon="12.559652"><ele>542.1428571428571</ele><time>2026-03-28T16:52:56.985Z</time></trkpt><trkpt lat="42.4844587" lon="12.5597239"><ele>545.7142857142858</ele><time>2026-03-28T16:53:00.986Z</time></trkpt><trkpt lat="42.4844491" lon="12.5598141"><ele>549.2857142857142</ele><time>2026-03-28T16:53:05.985Z</time></trkpt><trkpt lat="42.4844299" lon="12.5599053"><ele>552.8571428571429</ele><time>2026-03-28T16:53:10.983Z</time></trkpt><trkpt lat="42.4844135" lon="12.5600061"><ele>556.4285714285714</ele><time>2026-03-28T16:53:15.982Z</time></trkpt><trkpt lat="42.4843885" lon="12.5601009"><ele>560.0</ele><time>2026-03-28T16:53:20.985Z</time></trkpt><trkpt lat="42.4843767" lon="12.5601959"><ele>560.0</ele><time>2026-03-28T16:53:25.983Z</time></trkpt><trkpt lat="42.484371" lon="12.5602984"><ele>560.0</ele><time>2026-03-28T16:53:31.985Z</time></trkpt><trkpt lat="42.4843557" lon="12.5603936"><ele>560.0</ele><time>2026-03-28T16:53:37.985Z</time></trkpt><trkpt lat="42.4843201" lon="12.5604739"><ele>560.0</ele><time>2026-03-28T16:53:42.984Z</time></trkpt><trkpt lat="42.4842776" lon="12.5605387"><ele>560.0</ele><time>2026-03-28T16:53:46.984Z</time></trkpt><trkpt lat="42.4842525" lon="12.56063"><ele>560.0</ele><time>2026-03-28T16:53:51.981Z</time></trkpt><trkpt lat="42.4842201" lon="12.5607171"><ele>560.0</ele><time>2026-03-28T16:53:56.981Z</time></trkpt><trkpt lat="42.4841731" lon="12.5607774"><ele>561.0</ele><time>2026-03-28T16:54:01.984Z</time></trkpt><trkpt lat="42.4841232" lon="12.5608383"><ele>562.0</ele><time>2026-03-28T16:54:06.985Z</time></trkpt><trkpt lat="42.4840487" lon="12.5608741"><ele>563.0</ele><time>2026-03-28T16:54:11.985Z</time></trkpt><trkpt lat="42.4839768" lon="12.5609033"><ele>564.0</ele><time>2026-03-28T16:54:16.986Z</time></trkpt><trkpt lat="42.4839125" lon="12.5609366"><ele>565.0</ele><time>2026-03-28T16:54:21.984Z</time></trkpt><trkpt lat="42.4838474" lon="12.5609759"><ele>566.0</ele><time>2026-03-28T16:54:26.986Z</time></trkpt><trkpt lat="42.4837837" lon="12.5610214"><ele>567.0</ele><time>2026-03-28T16:54:31.986Z</time></trkpt><trkpt lat="42.4837114" lon="12.561052"><ele>567.0</ele><time>2026-03-28T16:54:36.985Z</time></trkpt><trkpt lat="42.4836503" lon="12.5611036"><ele>567.0</ele><time>2026-03-28T16:54:42.987Z</time></trkpt><trkpt lat="42.4835999" lon="12.5611744"><ele>567.0</ele><time>2026-03-28T16:54:47.987Z</time></trkpt><trkpt lat="42.4835468" lon="12.5612252"><ele>567.0</ele><time>2026-03-28T16:54:52.986Z</time></trkpt><trkpt lat="42.4834765" lon="12.5612829"><ele>567.0</ele><time>2026-03-28T16:54:56.982Z</time></trkpt><trkpt lat="42.483415" lon="12.5613363"><ele>567.0</ele><time>2026-03-28T16:55:01.986Z</time></trkpt><trkpt lat="42.4833621" lon="12.5613842"><ele>567.0</ele><time>2026-03-28T16:55:06.985Z</time></trkpt><trkpt lat="42.4833335" lon="12.5614684"><ele>565.1428571428571</ele><time>2026-03-28T16:55:14.983Z</time></trkpt><trkpt lat="42.4833099" lon="12.5615642"><ele>563.2857142857142</ele><time>2026-03-28T16:55:20.986Z</time></trkpt><trkpt lat="42.4833023" lon="12.5616547"><ele>561.4285714285714</ele><time>2026-03-28T16:55:26.986Z</time></trkpt><trkpt lat="42.483258" lon="12.5617335"><ele>559.5714285714286</ele><time>2026-03-28T16:55:33.982Z</time></trkpt><trkpt lat="42.4832088" lon="12.56179"><ele>557.7142857142857</ele><time>2026-03-28T16:55:39.982Z</time></trkpt><trkpt lat="42.4831868" lon="12.5618735"><ele>555.8571428571429</ele><time>2026-03-28T16:55:46.981Z</time></trkpt><trkpt lat="42.4831917" lon="12.56197"><ele>554.0</ele><time>2026-03-28T16:55:52.985Z</time></trkpt><trkpt lat="42.4831944" lon="12.5620563"><ele>554.0</ele><time>2026-03-28T16:55:57.984Z</time></trkpt><trkpt lat="42.4832159" lon="12.5621518"><ele>554.0</ele><time>2026-03-28T16:56:02.985Z</time></trkpt><trkpt lat="42.4832388" lon="12.5622428"><ele>554.0</ele><time>2026-03-28T16:56:07.982Z</time></trkpt><trkpt lat="42.4832446" lon="12.562332"><ele>554.0</ele><time>2026-03-28T16:56:14.982Z</time></trkpt><trkpt lat="42.483234" lon="12.5624273"><ele>554.0</ele><time>2026-03-28T16:56:20.986Z</time></trkpt><trkpt lat="42.4832401" lon="12.5625212"><ele>554.0</ele><time>2026-03-28T16:56:26.985Z</time></trkpt><trkpt lat="42.4832474" lon="12.5626148"><ele>554.0</ele><time>2026-03-28T16:56:32.985Z</time></trkpt><trkpt lat="42.4832472" lon="12.5627149"><ele>554.0</ele><time>2026-03-28T16:56:38.982Z</time></trkpt><trkpt lat="42.4832411" lon="12.5628097"><ele>554.0</ele><time>2026-03-28T16:56:44.985Z</time></trkpt><trkpt lat="42.4832397" lon="12.5628996"><ele>554.0</ele><time>2026-03-28T16:56:50.984Z</time></trkpt><trkpt lat="42.4832177" lon="12.5629817"><ele>554.0</ele><time>2026-03-28T16:56:56.982Z</time></trkpt><trkpt lat="42.4832053" lon="12.5630777"><ele>554.0</ele><time>2026-03-28T16:57:02.985Z</time></trkpt><trkpt lat="42.4831844" lon="12.5631587"><ele>554.0</ele><time>2026-03-28T16:57:07.981Z</time></trkpt><trkpt lat="42.4831635" lon="12.56324"><ele>554.0</ele><time>2026-03-28T16:57:12.981Z</time></trkpt><trkpt lat="42.4831275" lon="12.5633209"><ele>554.5714285714286</ele><time>2026-03-28T16:57:18.983Z</time></trkpt><trkpt lat="42.4830867" lon="12.563386"><ele>555.1428571428571</ele><time>2026-03-28T16:57:22.984Z</time></trkpt><trkpt lat="42.4830423" lon="12.5634643"><ele>555.7142857142857</ele><time>2026-03-28T16:57:27.983Z</time></trkpt><trkpt lat="42.4829812" lon="12.5635248"><ele>556.2857142857142</ele><time>2026-03-28T16:57:32.984Z</time></trkpt><trkpt lat="42.4829281" lon="12.5635915"><ele>556.8571428571429</ele><time>2026-03-28T16:57:38.98Z</time></trkpt><trkpt lat="42.4828844" lon="12.563654"><ele>557.4285714285713</ele><time>2026-03-28T16:57:45.981Z</time></trkpt><trkpt lat="42.4828306" lon="12.5637022"><ele>558.0</ele><time>2026-03-28T16:57:54.98Z</time></trkpt><trkpt lat="42.4827681" lon="12.5637542"><ele>558.8571428571428</ele><time>2026-03-28T16:57:59.981Z</time></trkpt><trkpt lat="42.4826955" lon="12.5638012"><ele>559.7142857142857</ele><time>2026-03-28T16:58:03.982Z</time></trkpt><trkpt lat="42.4826439" lon="12.5638629"><ele>560.5714285714286</ele><time>2026-03-28T16:58:07.982Z</time></trkpt><trkpt lat="42.4826003" lon="12.5639295"><ele>561.4285714285713</ele><time>2026-03-28T16:58:11.983Z</time></trkpt><trkpt lat="42.482548" lon="12.5639932"><ele>562.2857142857142</ele><time>2026-03-28T16:58:17.98Z</time></trkpt><trkpt lat="42.4825139" lon="12.564069"><ele>563.1428571428571</ele><time>2026-03-28T16:58:22.981Z</time></trkpt><trkpt lat="42.4825119" lon="12.5641588"><ele>564.0</ele><time>2026-03-28T16:58:27.981Z</time></trkpt><trkpt lat="42.4825072" lon="12.5642547"><ele>564.0</ele><time>2026-03-28T16:58:32.981Z</time></trkpt><trkpt lat="42.4825044" lon="12.5643437"><ele>564.0</ele><time>2026-03-28T16:58:37.98Z</time></trkpt><trkpt lat="42.4824971" lon="12.5644437"><ele>564.0</ele><time>2026-03-28T16:58:43.981Z</time></trkpt><trkpt lat="42.4824958" lon="12.5645342"><ele>564.0</ele><time>2026-03-28T16:58:48.981Z</time></trkpt><trkpt lat="42.4824762" lon="12.5646245"><ele>564.0</ele><time>2026-03-28T16:58:53.981Z</time></trkpt><trkpt lat="42.4824341" lon="12.5647016"><ele>564.0</ele><time>2026-03-28T16:58:58.982Z</time></trkpt><trkpt lat="42.482386" lon="12.5647614"><ele>564.0</ele><time>2026-03-28T16:59:03.982Z</time></trkpt><trkpt lat="42.4823275" lon="12.5648048"><ele>563.5714285714286</ele><time>2026-03-28T16:59:08.981Z</time></trkpt><trkpt lat="42.4822604" lon="12.5648493"><ele>563.1428571428571</ele><time>2026-03-28T16:59:14.982Z</time></trkpt><trkpt lat="42.4821928" lon="12.5648739"><ele>562.7142857142857</ele><time>2026-03-28T16:59:19.981Z</time></trkpt><trkpt lat="42.4821229" lon="12.5649057"><ele>562.2857142857142</ele><time>2026-03-28T16:59:25.981Z</time></trkpt><trkpt lat="42.4820533" lon="12.5649442"><ele>561.8571428571428</ele><time>2026-03-28T16:59:31.982Z</time></trkpt><trkpt lat="42.4819947" lon="12.5649778"><ele>561.4285714285714</ele><time>2026-03-28T16:59:36.982Z</time></trkpt><trkpt lat="42.4819358" lon="12.5650092"><ele>561.0</ele><time>2026-03-28T16:59:41.982Z</time></trkpt><trkpt lat="42.4818709" lon="12.5650312"><ele>561.0</ele><time>2026-03-28T16:59:46.982Z</time></trkpt><trkpt lat="42.48181" lon="12.5650608"><ele>561.0</ele><time>2026-03-28T16:59:51.981Z</time></trkpt><trkpt lat="42.4817462" lon="12.5650958"><ele>561.0</ele><time>2026-03-28T16:59:56.982Z</time></trkpt><trkpt lat="42.481681" lon="12.5651332"><ele>561.0</ele><time>2026-03-28T17:00:01.984Z</time></trkpt><trkpt lat="42.4816187" lon="12.5651815"><ele>561.0</ele><time>2026-03-28T17:00:06.983Z</time></trkpt><trkpt lat="42.4815538" lon="12.5652178"><ele>561.0</ele><time>2026-03-28T17:00:11.985Z</time></trkpt><trkpt lat="42.4814865" lon="12.5652522"><ele>561.0</ele><time>2026-03-28T17:00:17.982Z</time></trkpt><trkpt lat="42.4814269" lon="12.565311"><ele>561.8571428571429</ele><time>2026-03-28T17:00:24.985Z</time></trkpt><trkpt lat="42.4813817" lon="12.5653773"><ele>562.7142857142857</ele><time>2026-03-28T17:00:29.986Z</time></trkpt><trkpt lat="42.4813306" lon="12.5654417"><ele>563.5714285714286</ele><time>2026-03-28T17:00:34.984Z</time></trkpt><trkpt lat="42.4812694" lon="12.5654902"><ele>564.4285714285714</ele><time>2026-03-28T17:00:39.983Z</time></trkpt><trkpt lat="42.4812194" lon="12.5655492"><ele>565.2857142857142</ele><time>2026-03-28T17:00:45.985Z</time></trkpt><trkpt lat="42.4811671" lon="12.5656014"><ele>566.1428571428571</ele><time>2026-03-28T17:00:50.985Z</time></trkpt><trkpt lat="42.4811275" lon="12.5656826"><ele>567.0</ele><time>2026-03-28T17:00:55.985Z</time></trkpt><trkpt lat="42.4810816" lon="12.5657438"><ele>567.0</ele><time>2026-03-28T17:00:59.985Z</time></trkpt><trkpt lat="42.4810319" lon="12.5658214"><ele>567.0</ele><time>2026-03-28T17:01:04.985Z</time></trkpt><trkpt lat="42.4809952" lon="12.5658911"><ele>567.0</ele><time>2026-03-28T17:01:09.986Z</time></trkpt><trkpt lat="42.480966" lon="12.5659839"><ele>567.0</ele><time>2026-03-28T17:01:15.986Z</time></trkpt><trkpt lat="42.4809766" lon="12.5660733"><ele>567.0</ele><time>2026-03-28T17:01:21.986Z</time></trkpt><trkpt lat="42.4809669" lon="12.5661655"><ele>567.0</ele><time>2026-03-28T17:01:26.981Z</time></trkpt><trkpt lat="42.480935" lon="12.5662446"><ele>567.0</ele><time>2026-03-28T17:01:30.985Z</time></trkpt><trkpt lat="42.4809004" lon="12.5663228"><ele>566.5714285714286</ele><time>2026-03-28T17:01:35.984Z</time></trkpt><trkpt lat="42.4808818" lon="12.5664079"><ele>566.1428571428571</ele><time>2026-03-28T17:01:40.983Z</time></trkpt><trkpt lat="42.4808321" lon="12.5664933"><ele>565.7142857142858</ele><time>2026-03-28T17:01:47.98Z</time></trkpt><trkpt lat="42.4808068" lon="12.5665792"><ele>565.2857142857142</ele><time>2026-03-28T17:01:52.981Z</time></trkpt><trkpt lat="42.4807777" lon="12.5666639"><ele>564.8571428571429</ele><time>2026-03-28T17:01:57.982Z</time></trkpt><trkpt lat="42.4807426" lon="12.5667463"><ele>564.4285714285714</ele><time>2026-03-28T17:02:04.982Z</time></trkpt><trkpt lat="42.4807027" lon="12.5668288"><ele>564.0</ele><time>2026-03-28T17:02:11.982Z</time></trkpt><trkpt lat="42.4806803" lon="12.5669092"><ele>564.0</ele><time>2026-03-28T17:02:16.981Z</time></trkpt><trkpt lat="42.480656" lon="12.5669919"><ele>564.0</ele><time>2026-03-28T17:02:21.98Z</time></trkpt><trkpt lat="42.4806302" lon="12.5670788"><ele>564.0</ele><time>2026-03-28T17:02:26.983Z</time></trkpt><trkpt lat="42.4806002" lon="12.5671584"><ele>564.0</ele><time>2026-03-28T17:02:32.982Z</time></trkpt><trkpt lat="42.4805538" lon="12.5672217"><ele>564.0</ele><time>2026-03-28T17:02:39.983Z</time></trkpt><trkpt lat="42.4804921" lon="12.5672706"><ele>564.0</ele><time>2026-03-28T17:02:45.981Z</time></trkpt><trkpt lat="42.4804213" lon="12.5673019"><ele>564.0</ele><time>2026-03-28T17:02:50.981Z</time></trkpt><trkpt lat="42.4803529" lon="12.5673168"><ele>570.0</ele><time>2026-03-28T17:02:54.98Z</time></trkpt><trkpt lat="42.4802948" lon="12.567358"><ele>570.0</ele><time>2026-03-28T17:02:59.982Z</time></trkpt><trkpt lat="42.4802291" lon="12.5673659"><ele>570.0</ele><time>2026-03-28T17:03:03.982Z</time></trkpt><trkpt lat="42.4801581" lon="12.5673988"><ele>570.0</ele><time>2026-03-28T17:03:10.982Z</time></trkpt><trkpt lat="42.4800931" lon="12.5674219"><ele>570.0</ele><time>2026-03-28T17:03:14.984Z</time></trkpt><trkpt lat="42.4800184" lon="12.567444"><ele>570.0</ele><time>2026-03-28T17:03:19.984Z</time></trkpt></trkseg></trk></gpx>